sensor_id;sensor_type;location;lat;lon;timestamp;P1;durP1;ratioP1;P2;durP2;ratioP2
69627;SDS011;56850;51.984;5.088;2022-08-27T00:00:46;7.80;;;2.17;;
69627;SDS011;56850;51.984;5.088;2022-08-27T00:03:14;5.93;;;2.70;;
69627;SDS011;56850;51.984;5.088;2022-08-27T00:05:41;8.27;;;2.50;;
69627;SDS011;56850;51.984;5.088;2022-08-27T00:08:10;7.03;;;2.58;;
69627;SDS011;56850;51.984;5.088;2022-08-27T00:10:38;5.97;;;2.60;;
69627;SDS011;56850;51.984;5.088;2022-08-27T00:13:06;6.80;;;2.53;;
69627;SDS011;56850;51.984;5.088;2022-08-27T00:15:33;5.03;;;2.08;;
69627;SDS011;56850;51.984;5.088;2022-08-27T00:18:00;5.82;;;2.20;;
69627;SDS011;56850;51.984;5.088;2022-08-27T00:20:28;8.35;;;2.20;;
69627;SDS011;56850;51.984;5.088;2022-08-27T00:22:55;5.60;;;2.57;;
69627;SDS011;56850;51.984;5.088;2022-08-27T00:25:21;6.18;;;2.63;;
69627;SDS011;56850;51.984;5.088;2022-08-27T00:27:49;6.45;;;2.45;;
69627;SDS011;56850;51.984;5.088;2022-08-27T00:30:17;5.10;;;2.35;;
69627;SDS011;56850;51.984;5.088;2022-08-27T00:32:46;4.07;;;2.08;;
69627;SDS011;56850;51.984;5.088;2022-08-27T00:35:13;4.25;;;2.30;;
69627;SDS011;56850;51.984;5.088;2022-08-27T00:37:41;8.55;;;2.40;;
69627;SDS011;56850;51.984;5.088;2022-08-27T00:40:10;8.65;;;2.53;;
69627;SDS011;56850;51.984;5.088;2022-08-27T00:42:40;8.40;;;2.30;;
69627;SDS011;56850;51.984;5.088;2022-08-27T00:45:08;6.28;;;2.50;;
69627;SDS011;56850;51.984;5.088;2022-08-27T00:47:35;4.88;;;2.08;;
69627;SDS011;56850;51.984;5.088;2022-08-27T00:50:14;9.27;;;2.80;;
69627;SDS011;56850;51.984;5.088;2022-08-27T00:52:46;4.10;;;2.10;;
69627;SDS011;56850;51.984;5.088;2022-08-27T06:56:41;8.23;;;2.72;;
69627;SDS011;56850;51.984;5.088;2022-08-27T06:59:11;7.40;;;2.95;;
69627;SDS011;56850;51.984;5.088;2022-08-27T07:01:41;5.68;;;2.60;;
69627;SDS011;56850;51.984;5.088;2022-08-27T07:04:11;6.32;;;2.50;;
69627;SDS011;56850;51.984;5.088;2022-08-27T07:06:42;5.88;;;2.60;;
69627;SDS011;56850;51.984;5.088;2022-08-27T07:09:09;5.15;;;2.33;;
69627;SDS011;56850;51.984;5.088;2022-08-27T07:11:36;6.55;;;2.63;;
69627;SDS011;56850;51.984;5.088;2022-08-27T07:14:04;7.55;;;2.60;;
69627;SDS011;56850;51.984;5.088;2022-08-27T07:16:33;9.25;;;4.93;;
69627;SDS011;56850;51.984;5.088;2022-08-27T07:19:01;10.50;;;5.22;;
69627;SDS011;56850;51.984;5.088;2022-08-27T07:21:30;7.97;;;5.40;;
69627;SDS011;56850;51.984;5.088;2022-08-27T07:23:59;10.15;;;4.63;;
69627;SDS011;56850;51.984;5.088;2022-08-27T07:26:31;10.57;;;5.47;;
69627;SDS011;56850;51.984;5.088;2022-08-27T07:28:59;7.85;;;5.07;;
69627;SDS011;56850;51.984;5.088;2022-08-27T07:31:27;7.78;;;4.30;;
69627;SDS011;56850;51.984;5.088;2022-08-27T07:33:54;8.65;;;4.50;;
69627;SDS011;56850;51.984;5.088;2022-08-27T07:36:21;8.02;;;4.20;;
69627;SDS011;56850;51.984;5.088;2022-08-27T07:38:49;7.60;;;3.83;;
69627;SDS011;56850;51.984;5.088;2022-08-27T07:41:27;10.02;;;3.78;;
69627;SDS011;56850;51.984;5.088;2022-08-27T07:43:59;8.85;;;2.88;;
69627;SDS011;56850;51.984;5.088;2022-08-27T07:46:46;6.38;;;3.20;;
69627;SDS011;56850;51.984;5.088;2022-08-27T07:49:15;7.85;;;2.80;;
69627;SDS011;56850;51.984;5.088;2022-08-27T07:51:43;7.60;;;4.55;;
69627;SDS011;56850;51.984;5.088;2022-08-27T07:54:10;7.78;;;3.13;;
69627;SDS011;56850;51.984;5.088;2022-08-27T07:56:37;11.35;;;3.05;;
69627;SDS011;56850;51.984;5.088;2022-08-27T07:59:04;6.53;;;2.70;;
69627;SDS011;56850;51.984;5.088;2022-08-27T08:01:32;8.30;;;2.53;;
69627;SDS011;56850;51.984;5.088;2022-08-27T08:03:59;8.10;;;2.58;;
69627;SDS011;56850;51.984;5.088;2022-08-27T08:06:26;4.93;;;2.40;;
69627;SDS011;56850;51.984;5.088;2022-08-27T08:08:53;6.65;;;2.47;;
69627;SDS011;56850;51.984;5.088;2022-08-27T08:11:20;6.10;;;2.47;;
69627;SDS011;56850;51.984;5.088;2022-08-27T08:13:47;6.03;;;2.58;;
69627;SDS011;56850;51.984;5.088;2022-08-27T08:16:14;5.00;;;2.90;;
69627;SDS011;56850;51.984;5.088;2022-08-27T08:18:41;7.63;;;2.50;;
69627;SDS011;56850;51.984;5.088;2022-08-27T08:21:10;4.68;;;2.45;;
69627;SDS011;56850;51.984;5.088;2022-08-27T08:23:38;9.18;;;2.40;;
69627;SDS011;56850;51.984;5.088;2022-08-27T08:26:07;4.95;;;2.65;;
69627;SDS011;56850;51.984;5.088;2022-08-27T08:28:35;4.25;;;2.42;;
69627;SDS011;56850;51.984;5.088;2022-08-27T08:31:04;5.10;;;2.30;;
69627;SDS011;56850;51.984;5.088;2022-08-27T08:33:32;6.45;;;2.20;;
69627;SDS011;56850;51.984;5.088;2022-08-27T08:36:07;5.20;;;1.95;;
69627;SDS011;56850;51.984;5.088;2022-08-27T08:38:36;7.25;;;2.17;;
69627;SDS011;56850;51.984;5.088;2022-08-27T08:41:05;6.95;;;2.10;;
69627;SDS011;56850;51.984;5.088;2022-08-27T08:43:45;5.63;;;2.20;;
69627;SDS011;56850;51.984;5.088;2022-08-27T08:46:18;5.70;;;1.67;;
69627;SDS011;56850;51.984;5.088;2022-08-27T08:48:54;6.95;;;1.80;;
69627;SDS011;56850;51.984;5.088;2022-08-27T08:51:28;4.00;;;1.67;;
69627;SDS011;56850;51.984;5.088;2022-08-27T08:53:59;4.43;;;1.60;;
69627;SDS011;56850;51.984;5.088;2022-08-27T08:56:30;4.28;;;1.85;;
69627;SDS011;56850;51.984;5.088;2022-08-27T08:59:24;4.60;;;1.60;;
69627;SDS011;56850;51.984;5.088;2022-08-27T09:02:00;4.53;;;1.98;;
69627;SDS011;56850;51.984;5.088;2022-08-27T09:04:27;3.88;;;2.08;;
69627;SDS011;56850;51.984;5.088;2022-08-27T09:09:52;5.65;;;1.67;;
69627;SDS011;56850;51.984;5.088;2022-08-27T09:12:36;6.88;;;2.17;;
69627;SDS011;56850;51.984;5.088;2022-08-27T09:15:17;4.43;;;1.83;;
69627;SDS011;56850;51.984;5.088;2022-08-27T09:17:47;4.10;;;1.77;;
69627;SDS011;56850;51.984;5.088;2022-08-27T09:20:17;4.35;;;1.70;;
69627;SDS011;56850;51.984;5.088;2022-08-27T09:25:35;7.05;;;1.70;;
69627;SDS011;56850;51.984;5.088;2022-08-27T09:28:06;5.35;;;1.55;;
69627;SDS011;56850;51.984;5.088;2022-08-27T09:31:03;3.72;;;1.50;;
69627;SDS011;56850;51.984;5.088;2022-08-27T09:33:32;8.27;;;1.73;;
69627;SDS011;56850;51.984;5.088;2022-08-27T09:36:19;7.15;;;1.67;;
69627;SDS011;56850;51.984;5.088;2022-08-27T09:38:56;5.05;;;1.80;;
69627;SDS011;56850;51.984;5.088;2022-08-27T09:41:31;6.35;;;1.80;;
69627;SDS011;56850;51.984;5.088;2022-08-27T09:44:09;3.47;;;1.65;;
69627;SDS011;56850;51.984;5.088;2022-08-27T09:46:38;4.90;;;1.73;;
69627;SDS011;56850;51.984;5.088;2022-08-27T09:49:08;3.90;;;1.63;;
69627;SDS011;56850;51.984;5.088;2022-08-27T09:51:38;5.32;;;2.08;;
69627;SDS011;56850;51.984;5.088;2022-08-27T09:54:07;5.97;;;1.90;;
69627;SDS011;56850;51.984;5.088;2022-08-27T09:56:35;3.97;;;1.73;;
69627;SDS011;56850;51.984;5.088;2022-08-27T09:59:04;5.10;;;1.90;;
69627;SDS011;56850;51.984;5.088;2022-08-27T10:04:25;4.35;;;1.92;;
69627;SDS011;56850;51.984;5.088;2022-08-27T10:07:21;9.52;;;2.17;;
69627;SDS011;56850;51.984;5.088;2022-08-27T10:13:15;5.15;;;1.63;;
69627;SDS011;56850;51.984;5.088;2022-08-27T10:15:50;3.55;;;1.60;;
69627;SDS011;56850;51.984;5.088;2022-08-27T10:21:44;5.22;;;1.55;;
69627;SDS011;56850;51.984;5.088;2022-08-27T10:27:36;4.32;;;1.90;;
69627;SDS011;56850;51.984;5.088;2022-08-27T10:30:24;4.28;;;2.05;;
69627;SDS011;56850;51.984;5.088;2022-08-27T10:33:18;4.00;;;1.48;;
69627;SDS011;56850;51.984;5.088;2022-08-27T10:38:56;5.97;;;2.15;;
69627;SDS011;56850;51.984;5.088;2022-08-27T10:41:33;4.00;;;1.63;;
69627;SDS011;56850;51.984;5.088;2022-08-27T10:44:22;4.65;;;1.75;;
69627;SDS011;56850;51.984;5.088;2022-08-27T10:47:35;4.18;;;1.92;;
69627;SDS011;56850;51.984;5.088;2022-08-27T10:50:12;4.95;;;2.17;;
69627;SDS011;56850;51.984;5.088;2022-08-27T10:52:50;3.40;;;1.50;;
69627;SDS011;56850;51.984;5.088;2022-08-27T10:55:28;3.35;;;1.40;;
69627;SDS011;56850;51.984;5.088;2022-08-27T10:58:11;3.75;;;1.60;;
69627;SDS011;56850;51.984;5.088;2022-08-27T11:05:59;6.97;;;2.17;;
69627;SDS011;56850;51.984;5.088;2022-08-27T11:08:39;4.05;;;1.50;;
69627;SDS011;56850;51.984;5.088;2022-08-27T11:11:11;4.43;;;1.40;;
69627;SDS011;56850;51.984;5.088;2022-08-27T11:14:00;7.70;;;1.70;;
69627;SDS011;56850;51.984;5.088;2022-08-27T11:16:33;4.40;;;1.88;;
69627;SDS011;56850;51.984;5.088;2022-08-27T11:21:54;8.40;;;1.85;;
69627;SDS011;56850;51.984;5.088;2022-08-27T11:24:30;9.98;;;1.98;;
69627;SDS011;56850;51.984;5.088;2022-08-27T11:27:08;8.13;;;1.55;;
69627;SDS011;56850;51.984;5.088;2022-08-27T11:29:44;5.93;;;1.80;;
69627;SDS011;56850;51.984;5.088;2022-08-27T11:38:27;2.90;;;1.38;;
69627;SDS011;56850;51.984;5.088;2022-08-27T11:41:10;3.28;;;1.60;;
69627;SDS011;56850;51.984;5.088;2022-08-27T11:43:39;5.60;;;1.60;;
69627;SDS011;56850;51.984;5.088;2022-08-27T11:46:07;3.75;;;1.35;;
69627;SDS011;56850;51.984;5.088;2022-08-27T11:48:42;7.45;;;2.10;;
69627;SDS011;56850;51.984;5.088;2022-08-27T11:51:31;4.05;;;1.75;;
69627;SDS011;56850;51.984;5.088;2022-08-27T11:54:01;5.40;;;1.67;;
69627;SDS011;56850;51.984;5.088;2022-08-27T11:59:34;5.10;;;1.50;;
69627;SDS011;56850;51.984;5.088;2022-08-27T12:05:07;4.13;;;1.60;;
69627;SDS011;56850;51.984;5.088;2022-08-27T12:07:51;9.35;;;1.60;;
69627;SDS011;56850;51.984;5.088;2022-08-27T12:10:33;4.43;;;1.40;;
69627;SDS011;56850;51.984;5.088;2022-08-27T12:15:54;7.05;;;1.92;;
69627;SDS011;56850;51.984;5.088;2022-08-27T12:19:00;4.30;;;1.60;;
69627;SDS011;56850;51.984;5.088;2022-08-27T12:24:19;4.25;;;1.75;;
69627;SDS011;56850;51.984;5.088;2022-08-27T12:26:54;3.90;;;1.40;;
69627;SDS011;56850;51.984;5.088;2022-08-27T12:29:36;4.38;;;1.55;;
69627;SDS011;56850;51.984;5.088;2022-08-27T12:32:29;3.58;;;1.48;;
69627;SDS011;56850;51.984;5.088;2022-08-27T12:37:50;6.15;;;1.30;;
69627;SDS011;56850;51.984;5.088;2022-08-27T12:40:27;4.28;;;1.52;;
69627;SDS011;56850;51.984;5.088;2022-08-27T12:43:06;5.88;;;1.55;;
69627;SDS011;56850;51.984;5.088;2022-08-27T12:48:37;3.65;;;1.50;;
69627;SDS011;56850;51.984;5.088;2022-08-27T12:51:47;4.80;;;1.73;;
69627;SDS011;56850;51.984;5.088;2022-08-27T12:57:15;4.50;;;1.80;;
69627;SDS011;56850;51.984;5.088;2022-08-27T13:02:42;4.72;;;1.63;;
69627;SDS011;56850;51.984;5.088;2022-08-27T13:05:20;6.72;;;1.70;;
69627;SDS011;56850;51.984;5.088;2022-08-27T13:07:48;6.10;;;1.50;;
69627;SDS011;56850;51.984;5.088;2022-08-27T13:10:26;4.93;;;1.55;;
69627;SDS011;56850;51.984;5.088;2022-08-27T13:13:08;7.50;;;1.63;;
69627;SDS011;56850;51.984;5.088;2022-08-27T13:15:44;8.02;;;1.42;;
69627;SDS011;56850;51.984;5.088;2022-08-27T13:18:14;7.25;;;1.50;;
69627;SDS011;56850;51.984;5.088;2022-08-27T13:20:43;5.03;;;1.70;;
69627;SDS011;56850;51.984;5.088;2022-08-27T13:23:19;2.92;;;1.20;;
69627;SDS011;56850;51.984;5.088;2022-08-27T13:26:04;5.15;;;1.40;;
69627;SDS011;56850;51.984;5.088;2022-08-27T13:28:32;5.03;;;1.33;;
69627;SDS011;56850;51.984;5.088;2022-08-27T13:31:02;5.57;;;1.48;;
69627;SDS011;56850;51.984;5.088;2022-08-27T13:33:32;5.25;;;1.40;;
69627;SDS011;56850;51.984;5.088;2022-08-27T13:36:01;3.15;;;1.40;;
69627;SDS011;56850;51.984;5.088;2022-08-27T13:38:30;4.65;;;1.60;;
69627;SDS011;56850;51.984;5.088;2022-08-27T13:41:06;4.38;;;1.48;;
69627;SDS011;56850;51.984;5.088;2022-08-27T13:43:45;6.10;;;1.50;;
69627;SDS011;56850;51.984;5.088;2022-08-27T13:46:15;5.45;;;1.65;;
69627;SDS011;56850;51.984;5.088;2022-08-27T13:48:46;5.00;;;1.45;;
69627;SDS011;56850;51.984;5.088;2022-08-27T13:51:22;5.15;;;1.77;;
69627;SDS011;56850;51.984;5.088;2022-08-27T13:53:55;6.32;;;1.60;;
69627;SDS011;56850;51.984;5.088;2022-08-27T14:01:58;4.78;;;1.50;;
69627;SDS011;56850;51.984;5.088;2022-08-27T14:07:20;5.45;;;1.60;;
69627;SDS011;56850;51.984;5.088;2022-08-27T14:13:07;4.25;;;1.60;;
69627;SDS011;56850;51.984;5.088;2022-08-27T14:15:39;6.38;;;1.38;;
69627;SDS011;56850;51.984;5.088;2022-08-27T14:18:31;3.28;;;1.17;;
69627;SDS011;56850;51.984;5.088;2022-08-27T14:21:19;5.68;;;1.60;;
69627;SDS011;56850;51.984;5.088;2022-08-27T14:23:47;4.57;;;1.50;;
69627;SDS011;56850;51.984;5.088;2022-08-27T14:26:14;4.32;;;1.58;;
69627;SDS011;56850;51.984;5.088;2022-08-27T14:28:42;5.78;;;1.60;;
69627;SDS011;56850;51.984;5.088;2022-08-27T14:31:10;5.80;;;1.65;;
69627;SDS011;56850;51.984;5.088;2022-08-27T14:33:38;8.15;;;1.67;;
69627;SDS011;56850;51.984;5.088;2022-08-27T14:36:06;5.80;;;1.55;;
69627;SDS011;56850;51.984;5.088;2022-08-27T14:38:35;8.13;;;2.67;;
69627;SDS011;56850;51.984;5.088;2022-08-27T14:41:06;6.35;;;1.30;;
69627;SDS011;56850;51.984;5.088;2022-08-27T14:43:33;5.25;;;1.58;;
69627;SDS011;56850;51.984;5.088;2022-08-27T14:46:01;3.88;;;1.45;;
69627;SDS011;56850;51.984;5.088;2022-08-27T14:48:30;6.97;;;1.88;;
69627;SDS011;56850;51.984;5.088;2022-08-27T14:50:59;8.50;;;4.45;;
69627;SDS011;56850;51.984;5.088;2022-08-27T14:53:36;8.55;;;1.90;;
69627;SDS011;56850;51.984;5.088;2022-08-27T14:56:03;5.18;;;1.60;;
69627;SDS011;56850;51.984;5.088;2022-08-27T14:58:30;7.55;;;1.58;;
69627;SDS011;56850;51.984;5.088;2022-08-27T15:00:58;6.78;;;1.58;;
69627;SDS011;56850;51.984;5.088;2022-08-27T15:03:25;4.53;;;1.50;;
69627;SDS011;56850;51.984;5.088;2022-08-27T15:05:54;5.82;;;1.30;;
69627;SDS011;56850;51.984;5.088;2022-08-27T15:08:21;4.18;;;1.58;;
69627;SDS011;56850;51.984;5.088;2022-08-27T15:10:55;4.97;;;1.63;;
69627;SDS011;56850;51.984;5.088;2022-08-27T15:13:22;7.35;;;1.67;;
69627;SDS011;56850;51.984;5.088;2022-08-27T15:15:49;9.48;;;1.52;;
69627;SDS011;56850;51.984;5.088;2022-08-27T15:18:18;4.85;;;1.70;;
69627;SDS011;56850;51.984;5.088;2022-08-27T15:20:45;5.50;;;1.60;;
69627;SDS011;56850;51.984;5.088;2022-08-27T15:23:12;4.07;;;1.48;;
69627;SDS011;56850;51.984;5.088;2022-08-27T15:25:41;4.47;;;1.27;;
69627;SDS011;56850;51.984;5.088;2022-08-27T15:28:10;5.35;;;1.55;;
69627;SDS011;56850;51.984;5.088;2022-08-27T15:30:38;5.07;;;1.45;;
69627;SDS011;56850;51.984;5.088;2022-08-27T15:33:06;5.05;;;1.20;;
69627;SDS011;56850;51.984;5.088;2022-08-27T15:35:33;4.13;;;1.40;;
69627;SDS011;56850;51.984;5.088;2022-08-27T15:38:00;5.50;;;1.50;;
69627;SDS011;56850;51.984;5.088;2022-08-27T15:40:28;5.00;;;1.25;;
69627;SDS011;56850;51.984;5.088;2022-08-27T15:42:59;5.90;;;1.30;;
69627;SDS011;56850;51.984;5.088;2022-08-27T15:45:28;4.43;;;1.63;;
69627;SDS011;56850;51.984;5.088;2022-08-27T15:47:57;5.70;;;1.48;;
69627;SDS011;56850;51.984;5.088;2022-08-27T15:50:25;5.68;;;1.40;;
69627;SDS011;56850;51.984;5.088;2022-08-27T15:52:56;4.05;;;1.17;;
69627;SDS011;56850;51.984;5.088;2022-08-27T15:55:27;5.28;;;1.50;;
69627;SDS011;56850;51.984;5.088;2022-08-27T15:57:59;6.63;;;1.38;;
69627;SDS011;56850;51.984;5.088;2022-08-27T16:00:27;4.38;;;1.60;;
69627;SDS011;56850;51.984;5.088;2022-08-27T16:02:55;7.80;;;1.63;;
69627;SDS011;56850;51.984;5.088;2022-08-27T16:05:22;5.03;;;1.67;;
69627;SDS011;56850;51.984;5.088;2022-08-27T16:07:51;5.90;;;1.40;;
69627;SDS011;56850;51.984;5.088;2022-08-27T16:10:18;5.32;;;1.40;;
69627;SDS011;56850;51.984;5.088;2022-08-27T16:12:45;3.95;;;1.50;;
69627;SDS011;56850;51.984;5.088;2022-08-27T16:15:12;5.88;;;1.33;;
69627;SDS011;56850;51.984;5.088;2022-08-27T16:17:40;5.57;;;1.40;;
69627;SDS011;56850;51.984;5.088;2022-08-27T16:20:08;6.60;;;1.38;;
69627;SDS011;56850;51.984;5.088;2022-08-27T16:22:37;5.03;;;1.50;;
69627;SDS011;56850;51.984;5.088;2022-08-27T16:25:05;4.00;;;1.50;;
69627;SDS011;56850;51.984;5.088;2022-08-27T16:27:32;3.83;;;1.40;;
69627;SDS011;56850;51.984;5.088;2022-08-27T16:30:00;6.93;;;1.80;;
69627;SDS011;56850;51.984;5.088;2022-08-27T16:32:27;3.85;;;1.40;;
69627;SDS011;56850;51.984;5.088;2022-08-27T16:34:56;8.23;;;2.00;;
69627;SDS011;56850;51.984;5.088;2022-08-27T16:37:23;9.88;;;2.20;;
69627;SDS011;56850;51.984;5.088;2022-08-27T16:39:51;6.65;;;1.60;;
69627;SDS011;56850;51.984;5.088;2022-08-27T16:42:18;7.53;;;1.65;;
69627;SDS011;56850;51.984;5.088;2022-08-27T16:44:45;4.47;;;1.70;;
69627;SDS011;56850;51.984;5.088;2022-08-27T16:47:12;6.20;;;1.88;;
69627;SDS011;56850;51.984;5.088;2022-08-27T16:49:39;3.35;;;1.52;;
69627;SDS011;56850;51.984;5.088;2022-08-27T16:52:25;8.05;;;1.60;;
69627;SDS011;56850;51.984;5.088;2022-08-27T16:54:52;6.93;;;1.83;;
69627;SDS011;56850;51.984;5.088;2022-08-27T16:57:19;3.70;;;1.70;;
69627;SDS011;56850;51.984;5.088;2022-08-27T16:59:46;6.22;;;1.83;;
69627;SDS011;56850;51.984;5.088;2022-08-27T17:02:27;9.10;;;2.10;;
69627;SDS011;56850;51.984;5.088;2022-08-27T17:04:58;8.38;;;1.67;;
69627;SDS011;56850;51.984;5.088;2022-08-27T17:07:46;4.82;;;2.20;;
69627;SDS011;56850;51.984;5.088;2022-08-27T17:10:15;8.25;;;1.88;;
69627;SDS011;56850;51.984;5.088;2022-08-27T17:12:43;6.30;;;1.80;;
69627;SDS011;56850;51.984;5.088;2022-08-27T17:15:13;5.68;;;1.85;;
69627;SDS011;56850;51.984;5.088;2022-08-27T17:17:41;4.65;;;1.90;;
69627;SDS011;56850;51.984;5.088;2022-08-27T17:20:09;4.45;;;2.00;;
69627;SDS011;56850;51.984;5.088;2022-08-27T17:22:36;4.82;;;2.05;;
69627;SDS011;56850;51.984;5.088;2022-08-27T17:25:03;10.40;;;2.17;;
69627;SDS011;56850;51.984;5.088;2022-08-27T17:27:30;4.13;;;2.15;;
69627;SDS011;56850;51.984;5.088;2022-08-27T17:29:58;7.22;;;2.03;;
69627;SDS011;56850;51.984;5.088;2022-08-27T17:32:25;5.22;;;1.85;;
69627;SDS011;56850;51.984;5.088;2022-08-27T17:34:52;3.97;;;1.60;;
69627;SDS011;56850;51.984;5.088;2022-08-27T17:37:19;7.05;;;1.73;;
69627;SDS011;56850;51.984;5.088;2022-08-27T17:39:46;4.65;;;1.63;;
69627;SDS011;56850;51.984;5.088;2022-08-27T17:42:13;6.68;;;1.75;;
69627;SDS011;56850;51.984;5.088;2022-08-27T17:44:40;4.95;;;1.70;;
69627;SDS011;56850;51.984;5.088;2022-08-27T17:47:07;7.63;;;2.03;;
69627;SDS011;56850;51.984;5.088;2022-08-27T17:49:34;6.68;;;2.00;;
69627;SDS011;56850;51.984;5.088;2022-08-27T17:52:11;7.72;;;2.00;;
69627;SDS011;56850;51.984;5.088;2022-08-27T17:54:45;8.00;;;1.92;;
69627;SDS011;56850;51.984;5.088;2022-08-27T17:57:17;5.40;;;1.90;;
69627;SDS011;56850;51.984;5.088;2022-08-27T17:59:48;3.70;;;1.77;;
69627;SDS011;56850;51.984;5.088;2022-08-27T18:02:18;3.95;;;1.65;;
69627;SDS011;56850;51.984;5.088;2022-08-27T18:04:50;8.73;;;1.80;;
69627;SDS011;56850;51.984;5.088;2022-08-27T18:07:18;5.68;;;1.85;;
69627;SDS011;56850;51.984;5.088;2022-08-27T18:09:45;6.13;;;2.00;;
69627;SDS011;56850;51.984;5.088;2022-08-27T18:12:13;5.25;;;1.63;;
69627;SDS011;56850;51.984;5.088;2022-08-27T18:17:39;5.22;;;1.60;;
69627;SDS011;56850;51.984;5.088;2022-08-27T18:20:08;9.98;;;2.00;;
69627;SDS011;56850;51.984;5.088;2022-08-27T18:22:38;7.07;;;1.77;;
69627;SDS011;56850;51.984;5.088;2022-08-27T18:25:14;6.70;;;2.38;;
69627;SDS011;56850;51.984;5.088;2022-08-27T18:27:43;6.13;;;1.65;;
69627;SDS011;56850;51.984;5.088;2022-08-27T18:30:11;4.47;;;1.80;;
69627;SDS011;56850;51.984;5.088;2022-08-27T18:32:39;5.00;;;2.35;;
69627;SDS011;56850;51.984;5.088;2022-08-27T18:35:28;9.60;;;2.10;;
69627;SDS011;56850;51.984;5.088;2022-08-27T18:37:54;6.05;;;1.77;;
69627;SDS011;56850;51.984;5.088;2022-08-27T18:40:23;5.85;;;2.08;;
69627;SDS011;56850;51.984;5.088;2022-08-27T18:42:54;5.85;;;2.00;;
69627;SDS011;56850;51.984;5.088;2022-08-27T18:45:23;4.57;;;2.05;;
69627;SDS011;56850;51.984;5.088;2022-08-27T18:47:54;6.18;;;1.80;;
69627;SDS011;56850;51.984;5.088;2022-08-27T18:50:23;6.22;;;1.90;;
69627;SDS011;56850;51.984;5.088;2022-08-27T18:52:51;4.20;;;1.67;;
69627;SDS011;56850;51.984;5.088;2022-08-27T18:55:20;7.65;;;2.22;;
69627;SDS011;56850;51.984;5.088;2022-08-27T18:57:50;5.28;;;1.83;;
69627;SDS011;56850;51.984;5.088;2022-08-27T19:00:17;5.68;;;2.17;;
69627;SDS011;56850;51.984;5.088;2022-08-27T19:02:44;7.80;;;1.98;;
69627;SDS011;56850;51.984;5.088;2022-08-27T19:05:19;4.80;;;1.83;;
69627;SDS011;56850;51.984;5.088;2022-08-27T19:07:50;7.88;;;2.42;;
69627;SDS011;56850;51.984;5.088;2022-08-27T19:10:17;9.40;;;2.10;;
69627;SDS011;56850;51.984;5.088;2022-08-27T19:12:44;5.28;;;2.00;;
69627;SDS011;56850;51.984;5.088;2022-08-27T19:15:13;7.97;;;2.40;;
69627;SDS011;56850;51.984;5.088;2022-08-27T19:17:40;6.07;;;1.95;;
69627;SDS011;56850;51.984;5.088;2022-08-27T19:20:10;4.45;;;2.10;;
69627;SDS011;56850;51.984;5.088;2022-08-27T19:22:37;7.43;;;2.30;;
69627;SDS011;56850;51.984;5.088;2022-08-27T19:25:05;5.88;;;2.25;;
69627;SDS011;56850;51.984;5.088;2022-08-27T19:27:33;8.23;;;2.13;;
69627;SDS011;56850;51.984;5.088;2022-08-27T19:30:01;7.15;;;2.30;;
69627;SDS011;56850;51.984;5.088;2022-08-27T19:32:30;7.47;;;2.20;;
69627;SDS011;56850;51.984;5.088;2022-08-27T19:34:57;7.25;;;2.08;;
69627;SDS011;56850;51.984;5.088;2022-08-27T19:37:25;8.18;;;2.28;;
69627;SDS011;56850;51.984;5.088;2022-08-27T19:39:54;10.15;;;2.20;;
69627;SDS011;56850;51.984;5.088;2022-08-27T19:42:22;5.40;;;2.10;;
69627;SDS011;56850;51.984;5.088;2022-08-27T19:44:49;8.77;;;2.42;;
69627;SDS011;56850;51.984;5.088;2022-08-27T19:47:16;7.22;;;2.20;;
69627;SDS011;56850;51.984;5.088;2022-08-27T19:49:51;9.15;;;2.40;;
69627;SDS011;56850;51.984;5.088;2022-08-27T19:52:19;6.57;;;2.10;;
69627;SDS011;56850;51.984;5.088;2022-08-27T19:54:46;8.95;;;2.60;;
69627;SDS011;56850;51.984;5.088;2022-08-27T19:57:33;9.52;;;2.40;;
69627;SDS011;56850;51.984;5.088;2022-08-27T20:00:00;5.43;;;2.38;;
69627;SDS011;56850;51.984;5.088;2022-08-27T20:02:34;6.93;;;2.30;;
69627;SDS011;56850;51.984;5.088;2022-08-27T20:05:02;8.10;;;2.15;;
69627;SDS011;56850;51.984;5.088;2022-08-27T20:07:44;8.07;;;2.50;;
69627;SDS011;56850;51.984;5.088;2022-08-27T20:10:17;11.85;;;2.60;;
69627;SDS011;56850;51.984;5.088;2022-08-27T20:12:47;5.20;;;2.10;;
69627;SDS011;56850;51.984;5.088;2022-08-27T20:15:14;5.63;;;2.63;;
69627;SDS011;56850;51.984;5.088;2022-08-27T20:17:43;7.22;;;2.97;;
69627;SDS011;56850;51.984;5.088;2022-08-27T20:20:10;6.85;;;2.65;;
69627;SDS011;56850;51.984;5.088;2022-08-27T20:22:39;6.47;;;2.50;;
69627;SDS011;56850;51.984;5.088;2022-08-27T20:25:06;9.05;;;3.00;;
69627;SDS011;56850;51.984;5.088;2022-08-27T20:27:33;9.07;;;2.90;;
69627;SDS011;56850;51.984;5.088;2022-08-27T20:30:00;7.07;;;2.33;;
69627;SDS011;56850;51.984;5.088;2022-08-27T20:32:29;6.78;;;2.33;;
69627;SDS011;56850;51.984;5.088;2022-08-27T20:34:56;6.95;;;2.50;;
69627;SDS011;56850;51.984;5.088;2022-08-27T20:37:24;7.78;;;2.60;;
69627;SDS011;56850;51.984;5.088;2022-08-27T20:39:51;5.38;;;2.40;;
69627;SDS011;56850;51.984;5.088;2022-08-27T20:42:19;10.07;;;2.60;;
69627;SDS011;56850;51.984;5.088;2022-08-27T20:44:46;10.20;;;2.70;;
69627;SDS011;56850;51.984;5.088;2022-08-27T20:47:14;7.03;;;2.40;;
69627;SDS011;56850;51.984;5.088;2022-08-27T20:49:42;5.20;;;2.97;;
69627;SDS011;56850;51.984;5.088;2022-08-27T20:52:10;8.88;;;2.28;;
69627;SDS011;56850;51.984;5.088;2022-08-27T20:54:38;6.70;;;2.70;;
69627;SDS011;56850;51.984;5.088;2022-08-27T20:57:05;10.60;;;2.75;;
69627;SDS011;56850;51.984;5.088;2022-08-27T20:59:34;6.88;;;2.58;;
69627;SDS011;56850;51.984;5.088;2022-08-27T21:02:20;8.35;;;2.78;;
69627;SDS011;56850;51.984;5.088;2022-08-27T21:04:50;7.05;;;2.90;;
69627;SDS011;56850;51.984;5.088;2022-08-27T21:07:17;10.23;;;2.75;;
69627;SDS011;56850;51.984;5.088;2022-08-27T21:09:45;10.52;;;3.13;;
69627;SDS011;56850;51.984;5.088;2022-08-27T21:12:23;8.80;;;2.92;;
69627;SDS011;56850;51.984;5.088;2022-08-27T21:14:51;11.13;;;2.60;;
69627;SDS011;56850;51.984;5.088;2022-08-27T21:17:22;7.93;;;2.88;;
69627;SDS011;56850;51.984;5.088;2022-08-27T21:19:51;5.65;;;2.75;;
69627;SDS011;56850;51.984;5.088;2022-08-27T21:22:18;8.85;;;3.50;;
69627;SDS011;56850;51.984;5.088;2022-08-27T21:24:46;6.90;;;2.72;;
69627;SDS011;56850;51.984;5.088;2022-08-27T21:27:14;7.63;;;2.70;;
69627;SDS011;56850;51.984;5.088;2022-08-27T21:29:42;10.15;;;3.10;;
69627;SDS011;56850;51.984;5.088;2022-08-27T21:32:10;7.63;;;3.33;;
69627;SDS011;56850;51.984;5.088;2022-08-27T21:34:38;10.32;;;3.22;;
69627;SDS011;56850;51.984;5.088;2022-08-27T21:37:07;11.23;;;3.10;;
69627;SDS011;56850;51.984;5.088;2022-08-27T21:39:36;9.10;;;2.90;;
69627;SDS011;56850;51.984;5.088;2022-08-27T21:42:03;9.80;;;2.85;;
69627;SDS011;56850;51.984;5.088;2022-08-27T21:44:30;10.07;;;3.33;;
69627;SDS011;56850;51.984;5.088;2022-08-27T21:46:58;8.85;;;3.13;;
69627;SDS011;56850;51.984;5.088;2022-08-27T21:49:26;6.90;;;3.00;;
69627;SDS011;56850;51.984;5.088;2022-08-27T21:51:53;7.47;;;3.10;;
69627;SDS011;56850;51.984;5.088;2022-08-27T21:54:20;10.25;;;2.90;;
69627;SDS011;56850;51.984;5.088;2022-08-27T21:56:51;9.23;;;3.35;;
69627;SDS011;56850;51.984;5.088;2022-08-27T21:59:18;10.80;;;3.05;;
69627;SDS011;56850;51.984;5.088;2022-08-27T22:01:45;8.57;;;3.60;;
69627;SDS011;56850;51.984;5.088;2022-08-27T22:04:15;7.68;;;3.88;;
69627;SDS011;56850;51.984;5.088;2022-08-27T22:06:42;8.63;;;3.40;;
69627;SDS011;56850;51.984;5.088;2022-08-27T22:09:09;6.47;;;3.20;;
69627;SDS011;56850;51.984;5.088;2022-08-27T22:11:39;7.18;;;2.92;;
69627;SDS011;56850;51.984;5.088;2022-08-27T22:14:10;8.02;;;3.35;;
69627;SDS011;56850;51.984;5.088;2022-08-27T22:16:37;10.18;;;3.00;;
69627;SDS011;56850;51.984;5.088;2022-08-27T22:19:04;10.98;;;3.47;;
69627;SDS011;56850;51.984;5.088;2022-08-27T22:21:33;9.27;;;3.60;;
69627;SDS011;56850;51.984;5.088;2022-08-27T22:24:00;13.18;;;3.60;;
69627;SDS011;56850;51.984;5.088;2022-08-27T22:26:27;7.72;;;3.40;;